Time;durP1;ratioP1;P1;durP2;ratioP2;P2;SDS_P1;SDS_P2;PMS_P1;PMS_P2;Temp;Humidity;BMP_temperature;BMP_pressure;BME280_temperature;BME280_humidity;BME280_pressure;Samples;Min_cycle;Max_cycle;Signal;HPM_P1;HPM_P2
2022/07/31 00:00:28;;;;;;;4.70;3.60;;;19.30;67.00;;;18.46;76.35;96266.69;4944199;28;20043;-67
2022/07/31 00:02:54;;;;;;;4.75;3.70;;;19.20;67.40;;;18.40;77.30;96265.78;4965002;28;20515;-67
2022/07/31 00:05:20;;;;;;;6.47;3.92;;;19.20;67.70;;;18.34;77.47;96264.88;4964709;28;20047;-67
2022/07/31 00:07:46;;;;;;;6.95;4.10;;;19.20;67.90;;;18.32;77.16;96266.94;4912515;28;20038;-67
2022/07/31 00:10:11;;;;;;;6.47;4.40;;;19.10;67.80;;;18.28;77.34;96264.97;4946718;28;20050;-67
2022/07/31 00:12:37;;;;;;;4.53;3.60;;;19.00;68.30;;;18.23;78.23;96273.66;4930205;28;20039;-67
2022/07/31 00:15:05;;;;;;;4.78;4.00;;;19.00;68.50;;;18.19;78.08;96272.53;4912039;28;20094;-67
2022/07/31 00:17:31;;;;;;;6.60;4.32;;;19.00;68.50;;;18.15;78.32;96263.38;4928726;28;20031;-67
2022/07/31 00:19:56;;;;;;;6.07;4.32;;;19.00;68.60;;;18.14;79.28;96271.59;4946000;28;20042;-68
2022/07/31 00:22:22;;;;;;;7.32;4.18;;;19.00;68.70;;;18.07;79.50;96263.72;4928312;28;20055;-67
2022/07/31 00:24:48;;;;;;;5.35;4.40;;;18.90;68.70;;;18.05;79.47;96263.13;4913137;28;20533;-67
2022/07/31 00:27:13;;;;;;;5.72;4.00;;;18.90;68.90;;;18.03;79.28;96262.56;4962767;28;20031;-67
2022/07/31 00:29:39;;;;;;;4.40;3.97;;;18.80;68.80;;;17.98;79.78;96257.94;4944095;28;20047;-67
2022/07/31 00:32:05;;;;;;;6.32;4.00;;;18.80;69.00;;;17.94;79.86;96253.31;4949068;28;20062;-67
2022/07/31 00:34:31;;;;;;;8.88;4.63;;;18.70;69.10;;;17.91;80.37;96259.09;4963392;28;20031;-67
2022/07/31 00:36:57;;;;;;;8.00;4.32;;;18.70;69.50;;;17.86;80.42;96245.66;4930319;28;20444;-67
2022/07/31 00:39:23;;;;;;;5.38;4.18;;;18.70;69.60;;;17.82;80.29;96249.81;4945657;28;20519;-67
2022/07/31 00:41:48;;;;;;;5.50;4.22;;;18.60;69.90;;;17.79;80.92;96248.44;4913607;28;20055;-67
2022/07/31 00:44:14;;;;;;;6.20;4.35;;;18.60;69.80;;;17.74;81.49;96257.13;4946688;28;20553;-67
2022/07/31 00:46:40;;;;;;;4.93;4.43;;;18.60;69.90;;;17.72;80.79;96261.84;4911648;28;20067;-67
2022/07/31 00:49:08;;;;;;;4.85;4.32;;;18.60;69.90;;;17.70;80.83;96257.81;4958243;28;20039;-67
2022/07/31 00:51:35;;;;;;;4.75;3.90;;;18.50;70.10;;;17.65;81.47;96258.47;4914860;28;20522;-67
2022/07/31 00:54:01;;;;;;;5.60;4.30;;;18.50;70.10;;;17.63;81.48;96262.38;4961551;28;20035;-67
2022/07/31 00:56:26;;;;;;;13.75;4.40;;;18.60;70.20;;;17.60;81.57;96263.66;4946222;28;20032;-67
2022/07/31 00:58:54;;;;;;;6.40;4.57;;;18.50;70.20;;;17.53;82.31;96257.63;4945383;28;20083;-67
2022/07/31 01:01:20;;;;;;;6.07;4.60;;;18.40;70.30;;;17.49;81.88;96263.63;4959334;28;20156;-67
2022/07/31 01:03:46;;;;;;;5.43;4.50;;;18.30;70.50;;;17.44;82.05;96265.13;4928260;28;20429;-67
2022/07/31 01:06:12;;;;;;;4.95;4.47;;;18.20;70.90;;;17.41;82.69;96265.56;4946778;28;20038;-68
2022/07/31 01:08:38;;;;;;;7.05;4.75;;;18.20;71.10;;;17.39;82.91;96258.84;4945079;28;20058;-67
2022/07/31 01:11:10;;;;;;;5.55;4.75;;;18.20;71.30;;;17.39;84.15;96261.53;4959920;28;20507;-67
2022/07/31 01:13:52;;;;;;;6.38;4.88;;;18.30;71.20;;;17.37;85.10;96269.72;4960676;28;20042;-67
2022/07/31 01:16:18;;;;;;;5.70;5.10;;;18.20;71.40;;;17.33;83.55;96257.13;4946620;28;20050;-67
2022/07/31 01:18:44;;;;;;;7.22;5.15;;;18.10;71.20;;;17.33;83.42;96262.44;4958086;28;20035;-68
2022/07/31 01:21:16;;;;;;;5.80;5.07;;;18.20;71.10;;;17.33;83.97;96262.44;4930228;28;20672;-67
2022/07/31 01:24:25;;;;;;;5.97;5.38;;;18.20;71.30;;;17.33;85.75;96259.78;4912298;28;20035;-67
2022/07/31 01:26:53;;;;;;;8.88;4.90;;;18.20;71.10;;;17.32;83.55;96251.00;4928566;28;20094;-67
2022/07/31 01:29:25;;;;;;;6.18;4.95;;;18.20;70.90;;;17.32;85.16;96258.16;4962723;28;20523;-67
2022/07/31 01:32:07;;;;;;;5.78;5.07;;;18.30;70.80;;;17.33;85.99;96259.78;4929367;28;20388;-67
2022/07/31 01:34:58;;;;;;;8.98;5.30;;;18.30;71.10;;;17.34;86.23;96262.19;4929398;28;20043;-67
2022/07/31 01:37:30;;;;;;;7.22;5.43;;;18.30;71.40;;;17.31;86.00;96253.88;4912361;28;20031;-67
2022/07/31 01:40:13;;;;;;;5.93;5.10;;;18.30;71.60;;;17.32;86.33;96261.63;4943894;28;20089;-66
2022/07/31 01:42:41;;;;;;;5.88;5.03;;;18.20;71.90;;;17.31;85.26;96259.19;4942503;28;20039;-67
2022/07/31 01:45:09;;;;;;;6.53;5.70;;;18.20;72.10;;;17.29;85.46;96255.97;4927678;28;20031;-67
2022/07/31 01:47:35;;;;;;;7.88;5.68;;;18.10;72.70;;;17.26;86.42;96259.88;4944501;28;20049;-67
2022/07/31 01:50:01;;;;;;;7.05;5.82;;;18.10;72.80;;;17.25;86.62;96252.13;4927343;28;20122;-67
2022/07/31 01:52:28;;;;;;;7.13;6.13;;;18.20;73.00;;;17.26;87.36;96251.09;4947123;28;20031;-67
2022/07/31 01:54:54;;;;;;;9.60;5.68;;;18.20;73.10;;;17.25;87.12;96252.13;4912582;28;20058;-67
2022/07/31 01:57:22;;;;;;;8.10;5.97;;;18.20;73.30;;;17.25;87.72;96246.81;4946429;28;20040;-67
2022/07/31 01:59:48;;;;;;;6.22;5.63;;;18.20;73.40;;;17.23;88.44;96247.03;4913862;28;20054;-67
2022/07/31 02:02:14;;;;;;;6.43;5.53;;;18.20;73.40;;;17.21;88.96;96248.31;4943478;28;20791;-68
2022/07/31 02:04:40;;;;;;;8.95;6.10;;;18.10;73.50;;;17.20;88.77;96247.50;4927861;28;20058;-67
2022/07/31 02:07:07;;;;;;;7.00;6.30;;;18.10;73.70;;;17.19;89.39;96251.16;4943044;28;20066;-67
2022/07/31 02:09:33;;;;;;;8.00;5.93;;;18.10;74.00;;;17.18;89.24;96254.06;4928732;28;20047;-67
2022/07/31 02:11:59;;;;;;;7.55;5.88;;;18.10;74.00;;;17.17;90.17;96260.41;4910298;28;20114;-69
2022/07/31 02:14:25;;;;;;;7.28;6.05;;;18.10;74.10;;;17.14;90.24;96254.50;4942390;28;20032;-67
2022/07/31 02:16:50;;;;;;;7.75;5.78;;;18.10;73.90;;;17.12;89.59;96256.59;4943175;28;20055;-67
2022/07/31 02:19:16;;;;;;;7.20;5.90;;;18.10;73.90;;;17.10;89.74;96249.88;4960459;28;20082;-67
2022/07/31 02:21:42;;;;;;;6.97;5.43;;;18.00;74.00;;;17.07;90.01;96253.81;4959714;28;20097;-67
2022/07/31 02:24:08;;;;;;;9.07;6.40;;;18.00;74.10;;;17.04;89.89;96248.13;4942359;28;20114;-67
2022/07/31 02:26:33;;;;;;;7.35;6.25;;;18.00;74.20;;;17.00;90.91;96253.09;4943288;28;20051;-67
2022/07/31 02:28:59;;;;;;;10.23;6.35;;;18.00;74.50;;;17.00;90.93;96258.41;4941670;28;20035;-67
2022/07/31 02:31:25;;;;;;;6.80;5.85;;;17.90;74.70;;;16.96;91.00;96249.25;4911559;28;20121;-69
2022/07/31 02:33:51;;;;;;;8.93;6.55;;;17.90;74.90;;;16.92;91.62;96245.41;4927498;28;20435;-67
2022/07/31 02:36:17;;;;;;;6.70;5.97;;;17.90;75.00;;;16.89;91.67;96245.88;4958558;28;20679;-67
2022/07/31 02:38:43;;;;;;;6.95;5.97;;;17.80;75.20;;;16.88;91.79;96244.25;4914792;28;20792;-67
2022/07/31 02:41:10;;;;;;;7.63;6.07;;;17.80;75.30;;;16.86;91.98;96248.97;4926931;28;20049;-67
2022/07/31 02:43:36;;;;;;;8.75;5.80;;;17.80;75.40;;;16.83;92.59;96247.59;4944010;28;20058;-67
2022/07/31 02:46:02;;;;;;;6.57;5.72;;;17.80;75.50;;;16.81;93.07;96254.16;4943547;28;20484;-67
2022/07/31 02:48:28;;;;;;;6.55;5.50;;;17.80;75.60;;;16.82;93.24;96247.81;4942021;28;20042;-67
2022/07/31 02:50:54;;;;;;;7.80;6.22;;;17.80;75.70;;;16.81;92.91;96249.66;4926688;28;20062;-67
2022/07/31 02:53:20;;;;;;;6.57;5.82;;;17.80;75.80;;;16.80;93.64;96248.03;4929938;28;20031;-67
2022/07/31 02:55:46;;;;;;;7.72;5.85;;;17.70;76.00;;;16.79;93.74;96256.22;4942805;28;20071;-67
2022/07/31 02:58:12;;;;;;;10.50;6.25;;;17.80;76.10;;;16.80;93.93;96252.53;4958445;28;20035;-67
2022/07/31 03:00:37;;;;;;;6.95;6.25;;;17.70;76.10;;;16.77;94.56;96248.50;4910178;28;20059;-67
2022/07/31 03:03:03;;;;;;;7.70;6.90;;;17.70;76.60;;;16.77;94.59;96253.00;4943482;28;20822;-67
2022/07/31 03:05:30;;;;;;;6.95;6.25;;;17.70;76.90;;;16.76;95.29;96252.19;4926913;28;22178;-67
2022/07/31 03:07:55;;;;;;;6.93;5.68;;;17.70;77.00;;;16.77;95.64;96247.69;4959331;28;20042;-67
2022/07/31 03:10:21;;;;;;;10.45;6.60;;;17.70;77.00;;;16.79;95.75;96250.91;4959333;28;20039;-67
2022/07/31 03:12:49;;;;;;;7.90;6.55;;;17.80;76.90;;;16.80;96.18;96247.22;4942335;28;20605;-67
2022/07/31 03:15:17;;;;;;;8.43;6.22;;;17.80;77.00;;;16.83;96.56;96252.91;4925820;28;20023;-67
2022/07/31 03:17:43;;;;;;;7.63;6.55;;;17.90;76.90;;;16.83;96.55;96255.56;4961580;28;20031;-69
2022/07/31 03:20:10;;;;;;;7.97;6.38;;;17.90;76.90;;;16.86;96.57;96251.63;4948398;28;20525;-67
2022/07/31 03:22:35;;;;;;;8.30;6.00;;;17.90;76.90;;;16.87;96.99;96247.94;4936510;28;20079;-67
2022/07/31 03:25:02;;;;;;;7.00;6.13;;;17.90;76.90;;;16.89;96.48;96253.84;4960989;28;20042;-67
2022/07/31 03:27:28;;;;;;;6.53;5.55;;;17.90;76.80;;;16.88;96.63;96249.56;4942717;28;20035;-67
2022/07/31 03:29:54;;;;;;;7.38;6.05;;;17.90;76.80;;;16.87;96.88;96250.59;4940842;28;20067;-66
2022/07/31 03:32:20;;;;;;;7.00;5.57;;;17.80;76.90;;;16.90;96.71;96246.69;4948091;28;20034;-67
2022/07/31 03:34:46;;;;;;;7.28;6.43;;;18.00;76.80;;;16.90;96.71;96244.84;4913498;28;20031;-67
2022/07/31 03:37:13;;;;;;;6.57;5.70;;;18.00;76.40;;;16.93;97.05;96244.38;4964438;28;20491;-66
2022/07/31 03:39:39;;;;;;;7.30;5.57;;;17.90;76.60;;;16.92;96.29;96239.28;4916508;28;20586;-67
2022/07/31 03:42:06;;;;;;;7.25;5.57;;;17.90;76.50;;;16.92;96.79;96240.09;4944557;28;20142;-67
2022/07/31 03:44:32;;;;;;;6.95;5.75;;;18.00;76.50;;;16.93;96.16;96244.38;4945739;28;20070;-66
2022/07/31 03:46:58;;;;;;;8.30;6.05;;;18.00;76.30;;;16.94;96.46;96243.34;4946382;28;20039;-67
2022/07/31 03:49:24;;;;;;;7.53;6.60;;;18.00;76.40;;;16.93;96.68;96241.72;4934203;28;20061;-67
2022/07/31 03:51:49;;;;;;;6.78;5.65;;;18.00;76.40;;;16.93;96.73;96246.22;4913644;28;20609;-67
2022/07/31 03:54:15;;;;;;;7.22;5.72;;;18.00;76.30;;;16.93;95.94;96246.22;4947934;28;20095;-67
2022/07/31 03:56:43;;;;;;;6.32;5.40;;;18.00;76.30;;;16.91;96.59;96238.47;4916275;28;20117;-67
2022/07/31 03:59:09;;;;;;;5.75;5.25;;;17.90;76.40;;;16.90;95.98;96244.84;4930899;28;20184;-67
2022/07/31 04:01:35;;;;;;;7.00;5.90;;;17.80;76.50;;;16.87;96.61;96245.28;4933115;28;20047;-67
2022/07/31 04:04:01;;;;;;;6.97;6.28;;;17.80;76.40;;;16.86;96.75;96248.97;4913326;28;20093;-67
2022/07/31 04:06:27;;;;;;;9.18;7.15;;;17.80;76.60;;;16.82;96.34;96250.47;4949244;28;20043;-67
2022/07/31 04:08:52;;;;;;;8.05;7.15;;;17.70;76.90;;;16.83;96.51;96246.78;4930229;28;20114;-67
2022/07/31 04:11:18;;;;;;;6.75;6.00;;;17.80;76.90;;;16.80;96.83;96247.22;4943095;28;20102;-67
2022/07/31 04:13:44;;;;;;;9.25;6.13;;;17.70;76.90;;;16.80;97.18;96253.34;4963825;28;20040;-67
2022/07/31 04:16:09;;;;;;;6.55;5.57;;;17.80;76.70;;;16.81;97.24;96243.53;4947043;28;20035;-67
2022/07/31 04:18:35;;;;;;;6.63;5.22;;;17.80;76.50;;;16.84;97.44;96253.72;4931181;28;20435;-67
2022/07/31 04:21:01;;;;;;;6.00;5.40;;;17.90;76.40;;;16.83;96.90;96252.91;4945084;28;20467;-67
2022/07/31 04:23:26;;;;;;;7.30;5.28;;;17.90;76.30;;;16.86;97.04;96248.97;4943306;28;20042;-67
2022/07/31 04:25:52;;;;;;;6.13;5.53;;;18.00;76.20;;;16.86;96.64;96251.63;4944216;28;20034;-67
2022/07/31 04:28:18;;;;;;;5.13;4.68;;;18.00;76.10;;;16.89;96.70;96256.50;4947350;28;20043;-67
2022/07/31 04:30:44;;;;;;;5.30;4.80;;;18.10;75.80;;;16.92;96.34;96261.34;4947462;28;20062;-66
2022/07/31 04:33:09;;;;;;;6.25;4.97;;;18.10;75.70;;;16.94;96.25;96261.94;4932238;28;20027;-67
2022/07/31 04:35:35;;;;;;;6.63;5.22;;;18.10;75.70;;;16.94;96.58;96259.28;4930704;29;20629;-67
2022/07/31 04:38:01;;;;;;;5.63;4.80;;;18.10;75.20;;;16.96;96.07;96262.53;4929715;28;20050;-67
2022/07/31 04:40:26;;;;;;;8.00;4.60;;;18.10;75.20;;;17.00;95.81;96263.72;4947050;28;21631;-67
2022/07/31 04:42:54;;;;;;;5.72;4.82;;;18.10;75.00;;;17.01;95.15;96267.19;4945143;28;20133;-67
2022/07/31 04:45:19;;;;;;;6.50;4.82;;;18.20;74.90;;;17.03;95.02;96268.59;4927704;28;20043;-67
2022/07/31 04:47:45;;;;;;;7.30;5.00;;;18.20;74.80;;;17.07;95.38;96268.94;4961838;28;20062;-67
2022/07/31 04:50:11;;;;;;;6.93;5.28;;;18.20;74.60;;;17.08;94.58;96271.38;4945421;28;20035;-67
2022/07/31 04:52:37;;;;;;;6.05;5.00;;;18.30;74.70;;;17.10;95.34;96271.94;4916429;29;20031;-66
2022/07/31 04:55:03;;;;;;;5.03;4.53;;;18.40;74.50;;;17.15;94.88;96277.41;4943813;28;20458;-67
2022/07/31 04:57:29;;;;;;;6.60;4.60;;;18.40;74.30;;;17.18;94.57;96270.00;4947824;28;20752;-67
2022/07/31 04:59:55;;;;;;;4.80;4.20;;;18.50;74.00;;;17.23;94.65;96272.81;4928547;28;20039;-66
2022/07/31 05:02:21;;;;;;;4.90;4.47;;;18.50;73.90;;;17.26;94.54;96270.50;4949251;28;20894;-67
2022/07/31 05:04:46;;;;;;;5.95;4.85;;;18.60;73.90;;;17.33;94.10;96273.06;4912603;28;20063;-67
2022/07/31 05:07:12;;;;;;;10.88;8.27;;;18.60;73.40;;;17.36;93.81;96270.75;4930281;28;20039;-68
2022/07/31 05:09:38;;;;;;;8.55;7.68;;;18.70;73.50;;;17.41;93.35;96264.75;4962154;28;20064;-67
2022/07/31 05:12:04;;;;;;;6.32;4.50;;;18.70;73.20;;;17.41;92.80;96264.75;4958929;28;20086;-68
2022/07/31 05:14:30;;;;;;;7.88;4.97;;;18.60;73.00;;;17.45;93.01;96265.94;4930843;28;20058;-70
2022/07/31 05:16:55;;;;;;;6.80;4.82;;;18.70;72.70;;;17.50;93.00;96268.72;4947040;28;20031;-67
2022/07/31 05:19:21;;;;;;;6.90;4.72;;;18.80;72.60;;;17.53;92.59;96268.28;4962493;28;20652;-69
2022/07/31 05:21:47;;;;;;;5.70;4.57;;;18.80;72.60;;;17.60;92.83;96268.16;4915535;28;20470;-68
2022/07/31 05:24:13;;;;;;;5.53;4.70;;;18.90;72.60;;;17.65;91.81;96266.44;4931595;29;20023;-67
2022/07/31 05:26:38;;;;;;;7.70;5.80;;;19.00;72.30;;;17.69;92.65;96264.97;4948427;28;20039;-67
2022/07/31 05:29:04;;;;;;;8.15;7.25;;;19.10;72.50;;;17.75;92.84;96271.22;4946234;28;20035;-67
2022/07/31 05:31:30;;;;;;;5.50;4.25;;;19.20;72.20;;;17.84;92.66;96253.88;4949715;28;20035;-67
2022/07/31 05:33:59;;;;;;;7.40;4.93;;;19.30;72.00;;;17.90;91.72;96262.81;4916753;28;20035;-67
2022/07/31 05:36:25;;;;;;;8.68;4.15;;;19.30;71.70;;;17.96;92.46;96265.34;4949117;28;20031;-67
2022/07/31 05:38:51;;;;;;;4.47;3.67;;;19.40;71.40;;;18.04;91.63;96264.19;4927686;28;20035;-66
2022/07/31 05:41:17;;;;;;;5.72;4.30;;;19.50;71.30;;;18.10;91.68;96267.75;4948324;28;20471;-67
2022/07/31 05:43:43;;;;;;;7.60;3.92;;;19.50;70.90;;;18.13;91.43;96264.66;4956275;28;20059;-66
2022/07/31 05:46:09;;;;;;;5.05;3.92;;;19.50;70.90;;;18.19;91.10;96261.88;4964479;28;20086;-67
2022/07/31 05:48:34;;;;;;;4.35;3.55;;;19.60;70.90;;;18.25;90.01;96271.59;4959576;28;20118;-67
2022/07/31 05:51:00;;;;;;;5.68;3.50;;;19.70;70.30;;;18.31;90.17;96264.50;4948728;28;20058;-67
2022/07/31 05:53:26;;;;;;;4.22;3.33;;;19.80;69.30;;;18.34;88.43;96267.53;4937085;28;20099;-67
2022/07/31 05:55:51;;;;;;;5.55;3.08;;;19.70;69.00;;;18.40;87.99;96270.31;4942633;28;20051;-68
2022/07/31 05:58:18;;;;;;;8.05;3.22;;;19.80;68.90;;;18.49;87.75;96271.56;4964263;28;20035;-67
2022/07/31 06:00:45;;;;;;;4.70;3.30;;;20.00;69.20;;;18.56;87.55;96262.41;4912812;28;20114;-67
2022/07/31 06:03:11;;;;;;;4.47;2.88;;;20.10;68.10;;;18.64;87.81;96278.06;4953793;28;20031;-67
2022/07/31 06:05:38;;;;;;;4.18;3.17;;;20.10;68.00;;;18.71;85.90;96269.91;4935464;28;20058;-67
2022/07/31 06:08:04;;;;;;;3.88;2.65;;;20.10;67.60;;;18.80;86.71;96279.19;4946829;28;20039;-67
2022/07/31 06:10:30;;;;;;;3.78;3.30;;;20.40;67.40;;;18.91;86.09;96281.00;4947732;28;20093;-67
2022/07/31 06:12:55;;;;;;;3.95;2.90;;;20.50;67.30;;;19.01;85.68;96282.22;4929208;28;20123;-67
2022/07/31 06:15:21;;;;;;;5.78;3.47;;;20.50;67.00;;;19.06;85.98;96277.00;4950856;28;20027;-70
2022/07/31 06:17:47;;;;;;;8.45;6.22;;;20.50;67.10;;;19.14;86.26;96281.94;4948354;28;20035;-70
2022/07/31 06:20:13;;;;;;;13.23;11.85;;;20.60;67.90;;;19.20;86.42;96289.00;4932433;28;20047;-69
2022/07/31 06:22:39;;;;;;;5.55;4.80;;;20.70;67.80;;;19.27;85.27;96287.00;4948124;28;20039;-69
2022/07/31 06:25:07;;;;;;;3.10;2.80;;;20.80;67.50;;;19.33;85.72;96288.72;4948419;28;20110;-68
2022/07/31 06:27:34;;;;;;;3.88;3.28;;;20.80;67.40;;;19.38;84.97;96291.47;4949338;28;20053;-71
2022/07/31 06:30:00;;;;;;;8.02;4.93;;;20.80;66.90;;;19.42;84.27;96287.25;4947695;28;20371;-68
2022/07/31 06:32:26;;;;;;;9.38;7.70;;;20.80;66.60;;;19.50;84.17;96288.75;4917117;29;20027;-68
2022/07/31 06:34:51;;;;;;;7.07;5.20;;;21.00;66.80;;;19.56;84.32;96285.16;4963413;28;20087;-66
2022/07/31 06:37:18;;;;;;;4.65;3.75;;;21.10;66.60;;;19.65;84.20;96280.22;4945340;28;20114;-68
2022/07/31 06:39:44;;;;;;;5.07;3.10;;;21.20;66.40;;;19.72;84.13;96284.34;4948550;28;20042;-73
2022/07/31 06:42:10;;;;;;;7.43;5.95;;;21.40;66.00;;;19.80;84.42;96283.13;4930885;28;20047;-69
2022/07/31 06:44:35;;;;;;;5.95;4.75;;;21.40;65.60;;;19.88;83.90;96280.06;4932688;29;20462;-68
2022/07/31 06:47:01;;;;;;;21.25;19.05;;;21.60;65.50;;;19.97;83.21;96273.28;4945974;28;20070;-71
2022/07/31 06:49:27;;;;;;;4.97;4.18;;;21.70;65.30;;;20.09;83.30;96271.31;4948212;28;20035;-69
2022/07/31 06:51:52;;;;;;;6.93;3.53;;;21.80;64.70;;;20.18;82.38;96275.19;4963636;28;20403;-67
2022/07/31 06:54:18;;;;;;;4.20;3.25;;;21.80;63.80;;;20.28;82.06;96274.53;4948221;28;20470;-68
2022/07/31 06:56:44;;;;;;;5.05;3.10;;;22.00;63.60;;;20.37;81.58;96282.94;4962009;28;20412;-68
2022/07/31 06:59:10;;;;;;;4.63;3.13;;;22.00;63.60;;;20.45;80.66;96279.88;4931664;28;20043;-68
2022/07/31 07:01:35;;;;;;;4.55;3.00;;;22.10;63.40;;;20.57;80.54;96288.56;4935702;28;20110;-68
2022/07/31 07:04:01;;;;;;;4.20;3.08;;;22.30;63.10;;;20.67;80.77;96288.72;4915693;28;20039;-65
2022/07/31 07:06:27;;;;;;;3.60;2.58;;;22.50;62.70;;;20.76;79.40;96284.53;4916481;29;20039;-68
2022/07/31 07:08:53;;;;;;;3.55;2.47;;;22.50;61.60;;;20.86;79.42;96291.09;4965911;28;20042;-67
2022/07/31 07:11:19;;;;;;;4.78;2.72;;;22.50;61.70;;;20.92;78.11;96290.91;4944641;28;20134;-68
2022/07/31 07:13:45;;;;;;;3.50;3.10;;;22.60;61.30;;;20.98;77.75;96289.88;4920653;29;20367;-67
2022/07/31 07:16:11;;;;;;;9.57;3.53;;;22.60;60.90;;;21.01;77.47;96291.25;4950935;28;20043;-68
2022/07/31 07:18:37;;;;;;;9.15;3.10;;;22.60;61.00;;;21.08;77.08;96286.53;4920416;29;20141;-68
2022/07/31 07:21:03;;;;;;;4.57;2.75;;;22.70;60.80;;;21.09;76.76;96296.19;4937990;28;20458;-68
2022/07/31 07:23:29;;;;;;;4.22;2.60;;;22.60;60.50;;;21.13;75.65;96297.28;4918838;29;20558;-68
2022/07/31 07:25:55;;;;;;;3.55;2.63;;;22.70;60.50;;;21.20;76.02;96291.72;4951139;28;20047;-67
2022/07/31 07:28:20;;;;;;;4.85;2.67;;;22.80;59.80;;;21.21;74.87;96286.13;4934309;28;20035;-68
2022/07/31 07:30:46;;;;;;;4.88;2.90;;;22.80;59.20;;;21.24;74.76;96291.00;4950764;28;20044;-68
2022/07/31 07:33:12;;;;;;;5.03;2.65;;;22.70;59.30;;;21.25;73.89;96286.47;4950700;28;20067;-67
2022/07/31 07:35:38;;;;;;;4.35;3.10;;;22.60;59.90;;;21.29;74.47;96291.09;4934245;28;20643;-67
2022/07/31 07:38:04;;;;;;;8.70;5.68;;;22.80;60.20;;;21.37;74.88;96293.31;4964907;28;20554;-67
2022/07/31 07:40:30;;;;;;;5.97;4.28;;;23.10;60.50;;;21.46;75.68;96284.81;4968575;28;20126;-68
2022/07/31 07:42:55;;;;;;;4.25;2.90;;;23.20;60.70;;;21.53;74.64;96290.78;4936578;28;20039;-67
2022/07/31 07:45:21;;;;;;;5.40;2.58;;;23.20;59.20;;;21.59;74.22;96292.44;4918907;29;20093;-67
2022/07/31 07:47:47;;;;;;;3.58;2.63;;;23.30;59.20;;;21.66;73.33;96290.34;4951009;28;20035;-67
2022/07/31 07:50:14;;;;;;;3.38;2.47;;;23.40;57.80;;;21.79;73.66;96292.63;4950727;28;20131;-67
2022/07/31 07:52:40;;;;;;;4.53;2.47;;;23.70;58.00;;;21.93;72.94;96285.75;4919728;28;20085;-67
2022/07/31 07:55:07;;;;;;;4.88;2.50;;;23.90;57.30;;;22.08;72.49;96277.06;4966254;28;20087;-66
2022/07/31 07:57:33;;;;;;;4.30;2.60;;;24.10;56.70;;;22.24;72.57;96276.13;4919705;29;20039;-67
2022/07/31 07:59:59;;;;;;;3.20;2.53;;;24.30;56.80;;;22.32;71.54;96272.13;4934731;28;20086;-67
2022/07/31 08:02:24;;;;;;;3.55;2.72;;;24.30;55.90;;;22.46;72.00;96267.13;4932052;28;20452;-67
2022/07/31 08:04:51;;;;;;;7.05;5.15;;;24.60;55.80;;;22.64;71.61;96279.28;4950502;28;20041;-67
2022/07/31 08:07:17;;;;;;;6.05;3.10;;;24.70;55.70;;;22.78;71.49;96275.06;4967312;28;20039;-67
2022/07/31 08:09:42;;;;;;;13.02;11.23;;;24.90;55.30;;;22.95;70.49;96274.91;4919104;28;20046;-67
2022/07/31 08:12:08;;;;;;;6.22;4.20;;;25.10;54.80;;;23.10;70.00;96273.06;4952370;28;20023;-68
2022/07/31 08:14:34;;;;;;;4.78;3.08;;;25.20;53.50;;;23.26;69.68;96267.72;4967156;28;20062;-67
2022/07/31 08:17:00;;;;;;;4.55;3.30;;;25.50;53.00;;;23.38;68.80;96261.06;4949853;28;20086;-69
2022/07/31 08:19:25;;;;;;;4.90;2.63;;;25.60;52.90;;;23.52;67.56;96253.28;4968338;28;20078;-67
2022/07/31 08:21:51;;;;;;;3.78;2.70;;;25.80;51.50;;;23.61;66.61;96254.41;4919900;29;20039;-67
2022/07/31 08:24:17;;;;;;;4.63;3.53;;;25.70;51.10;;;23.72;66.10;96257.88;4965020;28;20585;-69
2022/07/31 08:29:27;;;;;;;5.57;2.60;;;26.30;52.10;;;24.05;65.44;96256.56;4966041;28;20089;-68
2022/07/31 08:31:53;;;;;;;5.95;2.78;;;26.50;49.60;;;24.22;64.93;96250.91;4936325;28;20053;-68
2022/07/31 08:34:18;;;;;;;4.18;2.50;;;27.00;49.10;;;24.38;64.62;96250.59;4945829;28;20502;-68
2022/07/31 08:36:44;;;;;;;4.72;2.28;;;27.30;48.10;;;24.58;64.27;96243.56;4935976;28;20027;-68
2022/07/31 08:39:10;;;;;;;4.70;2.30;;;27.60;47.60;;;24.82;63.85;96243.72;4938451;28;20118;-66
2022/07/31 08:41:39;;;;;;;3.67;1.73;;;28.10;46.50;;;25.09;62.51;96243.38;4920760;28;20031;-71
2022/07/31 08:44:05;;;;;;;2.85;2.20;;;28.60;45.70;;;25.35;61.61;96242.16;4955975;28;20475;-70
2022/07/31 08:46:34;;;;;;;4.25;2.22;;;28.80;43.40;;;25.62;60.85;96252.47;4917602;29;20087;-70
2022/07/31 08:49:00;;;;;;;2.67;2.20;;;29.10;43.50;;;25.98;60.44;96247.63;4925823;28;20045;-68
2022/07/31 08:51:26;;;;;;;5.50;2.55;;;29.70;42.10;;;26.34;59.00;96231.94;4952865;28;20043;-68
2022/07/31 08:53:52;;;;;;;2.53;1.83;;;30.20;40.80;;;26.72;57.64;96229.38;4920556;28;20039;-68
2022/07/31 08:56:19;;;;;;;3.80;2.20;;;30.50;40.20;;;27.09;56.88;96237.53;4918266;28;20071;-68
2022/07/31 08:58:44;;;;;;;3.42;2.10;;;30.90;39.70;;;27.45;56.15;96237.84;4950673;28;20442;-68
2022/07/31 09:01:11;;;;;;;3.10;1.83;;;31.00;39.50;;;27.76;54.21;96245.50;4949161;28;20058;-68
2022/07/31 09:03:37;;;;;;;3.83;2.20;;;30.90;38.70;;;28.00;53.14;96234.56;4933325;28;20105;-68
2022/07/31 09:06:04;;;;;;;3.30;2.00;;;31.10;38.60;;;28.17;52.12;96234.81;4948636;28;20125;-68
2022/07/31 09:08:35;;;;;;;3.20;2.08;;;31.10;37.80;;;28.40;49.08;96227.66;4948617;28;20104;-68
2022/07/31 09:11:09;;;;;;;5.03;2.72;;;31.30;37.30;;;28.55;47.86;96234.69;4948666;28;20051;-68
2022/07/31 09:13:35;;;;;;;4.40;1.80;;;31.40;37.10;;;28.60;49.63;96232.69;4935855;28;20043;-69
2022/07/31 09:16:01;;;;;;;3.05;1.60;;;31.30;37.40;;;28.61;49.55;96220.75;4948914;28;20090;-69
2022/07/31 09:18:27;;;;;;;2.60;1.77;;;31.20;38.10;;;28.70;49.42;96225.47;4962093;28;20035;-69
2022/07/31 09:20:57;;;;;;;3.38;1.60;;;31.50;38.30;;;28.84;46.75;96223.56;4965180;28;20522;-69
2022/07/31 09:23:24;;;;;;;6.28;2.25;;;31.50;37.30;;;28.85;48.43;96217.88;4948670;28;20038;-69
2022/07/31 09:26:06;;;;;;;3.33;1.67;;;31.30;37.50;;;28.91;45.52;96221.25;4949917;28;20035;-69
2022/07/31 09:28:34;;;;;;;2.47;1.40;;;31.60;36.60;;;29.09;46.89;96214.91;4962307;28;20414;-70
2022/07/31 09:31:00;;;;;;;3.22;1.85;;;32.10;35.90;;;29.34;46.36;96213.53;4949104;28;20057;-70
2022/07/31 09:33:28;;;;;;;4.65;1.63;;;32.40;34.50;;;29.60;46.15;96202.13;4965044;28;20035;-74
2022/07/31 09:35:54;;;;;;;3.17;1.95;;;32.90;34.20;;;29.92;45.22;96207.31;4949386;28;20039;-71
2022/07/31 09:38:22;;;;;;;2.58;1.60;;;33.30;33.80;;;30.18;44.78;96210.19;4947363;28;20054;-69
2022/07/31 09:40:47;;;;;;;6.43;2.40;;;33.50;32.60;;;30.45;44.04;96207.28;4959824;28;20058;-66
2022/07/31 09:43:23;;;;;;;3.08;2.40;;;33.80;33.90;;;30.77;42.54;96208.06;4948488;28;20059;-66
2022/07/31 09:46:03;;;;;;;4.50;1.55;;;34.10;33.00;;;31.07;40.11;96203.66;4934892;28;20031;-66
2022/07/31 09:48:28;;;;;;;2.17;1.48;;;34.50;31.90;;;31.38;41.69;96203.56;4964977;28;20062;-65
2022/07/31 09:50:58;;;;;;;3.03;1.65;;;34.60;29.60;;;31.59;37.91;96203.72;4945634;28;20544;-65
2022/07/31 09:53:24;;;;;;;2.85;1.30;;;34.70;29.90;;;31.83;39.44;96197.78;4948664;28;20035;-65
2022/07/31 09:55:51;;;;;;;2.00;1.30;;;35.00;28.70;;;32.01;38.41;96187.69;4949356;28;20046;-65
2022/07/31 09:58:17;;;;;;;2.78;1.58;;;35.50;27.80;;;32.24;37.87;96197.22;4947355;28;20637;-67
2022/07/31 10:00:43;;;;;;;4.30;1.48;;;35.90;27.40;;;32.43;37.24;96189.50;4948023;28;20043;-65
2022/07/31 10:03:08;;;;;;;8.52;5.72;;;36.20;27.00;;;32.64;36.94;96178.66;4931453;28;20035;-66
2022/07/31 10:05:34;;;;;;;4.70;2.45;;;36.60;25.70;;;32.86;35.74;96175.69;4948760;28;20502;-66
2022/07/31 10:08:00;;;;;;;2.13;1.30;;;36.80;25.40;;;33.05;35.31;96177.16;4950409;28;20563;-67
2022/07/31 10:10:26;;;;;;;2.58;1.40;;;37.10;25.00;;;33.36;35.60;96184.97;4964212;28;20039;-66
2022/07/31 10:12:53;;;;;;;3.13;1.50;;;37.60;25.20;;;33.73;35.17;96177.75;4964067;28;20040;-65
2022/07/31 10:15:19;;;;;;;1.75;1.20;;;38.20;25.10;;;34.03;34.61;96179.22;4963993;28;20039;-67
2022/07/31 10:17:48;;;;;;;2.20;1.23;;;38.40;23.50;;;34.31;33.03;96184.06;4949571;28;20035;-66